sensor_id;sensor_type;location;lat;lon;timestamp;noise_LAeq;noise_LA_min;noise_LA_max;noise_LA01;noise_LA95
78273;Laerm;67530;52.282;5.972;2023-05-19T00:00:12;37.9;35.4;39.6;;
78273;Laerm;67530;52.282;5.972;2023-05-19T00:00:32;38.2;35.1;42.3;;
78273;Laerm;67530;52.282;5.972;2023-05-19T00:00:52;38;35.1;42.8;;
78273;Laerm;67530;52.282;5.972;2023-05-19T00:01:12;37.9;36.3;43.8;;
78273;Laerm;67530;52.282;5.972;2023-05-19T00:01:32;37.9;35.8;39.7;;
78273;Laerm;67530;52.282;5.972;2023-05-19T00:01:52;37.9;35.6;40.1;;
78273;Laerm;67530;52.282;5.972;2023-05-19T00:02:12;38;35.9;39.7;;
78273;Laerm;67530;52.282;5.972;2023-05-19T00:02:32;37.8;35.4;39.5;;
78273;Laerm;67530;52.282;5.972;2023-05-19T00:02:52;37.7;35.5;39.4;;
78273;Laerm;67530;52.282;5.972;2023-05-19T00:03:12;37.6;35;39.9;;
78273;Laerm;67530;52.282;5.972;2023-05-19T00:03:33;38;35.4;39.6;;
78273;Laerm;67530;52.282;5.972;2023-05-19T00:03:53;37.9;34.8;39.6;;
78273;Laerm;67530;52.282;5.972;2023-05-19T00:04:13;38.1;36;39.5;;
78273;Laerm;67530;52.282;5.972;2023-05-19T00:04:33;38.1;36;40;;
78273;Laerm;67530;52.282;5.972;2023-05-19T00:04:53;38.1;36.1;39.9;;
78273;Laerm;67530;52.282;5.972;2023-05-19T00:05:13;38.1;35.7;39.9;;
78273;Laerm;67530;52.282;5.972;2023-05-19T00:05:33;38;35.9;39.8;;
78273;Laerm;67530;52.282;5.972;2023-05-19T00:05:53;38.2;36.3;40.1;;
78273;Laerm;67530;52.282;5.972;2023-05-19T00:06:13;37.8;35.7;39.6;;
78273;Laerm;67530;52.282;5.972;2023-05-19T00:06:33;38.8;36.8;40.2;;
78273;Laerm;67530;52.282;5.972;2023-05-19T00:06:53;39;36.5;43.4;;
78273;Laerm;67530;52.282;5.972;2023-05-19T00:07:14;37.9;35.5;40.2;;
78273;Laerm;67530;52.282;5.972;2023-05-19T00:07:33;38.2;36.3;39.8;;
78273;Laerm;67530;52.282;5.972;2023-05-19T00:07:53;42.2;36;47.5;;
78273;Laerm;67530;52.282;5.972;2023-05-19T00:08:14;38.5;36;39.8;;
78273;Laerm;67530;52.282;5.972;2023-05-19T00:08:33;38.4;36.1;39.9;;
78273;Laerm;67530;52.282;5.972;2023-05-19T00:08:55;38.2;36.1;40.4;;
78273;Laerm;67530;52.282;5.972;2023-05-19T00:09:13;38.2;36.1;39.9;;
78273;Laerm;67530;52.282;5.972;2023-05-19T00:09:34;38.3;36.1;40.2;;
78273;Laerm;67530;52.282;5.972;2023-05-19T00:09:54;37.9;35.5;40;;
78273;Laerm;67530;52.282;5.972;2023-05-19T00:10:14;38.2;35.7;40.1;;
78273;Laerm;67530;52.282;5.972;2023-05-19T00:10:34;38.1;35.7;40;;
78273;Laerm;67530;52.282;5.972;2023-05-19T00:10:54;38.2;35.8;40.3;;
78273;Laerm;67530;52.282;5.972;2023-05-19T00:11:14;38.2;35.5;40.2;;
78273;Laerm;67530;52.282;5.972;2023-05-19T00:11:34;38.2;35.8;39.9;;
78273;Laerm;67530;52.282;5.972;2023-05-19T00:11:54;38.4;36.3;40.2;;
78273;Laerm;67530;52.282;5.972;2023-05-19T00:12:14;38.4;36.2;40.3;;
78273;Laerm;67530;52.282;5.972;2023-05-19T00:12:34;38.5;36;40.2;;
78273;Laerm;67530;52.282;5.972;2023-05-19T00:12:54;39.8;35.2;43.7;;
78273;Laerm;67530;52.282;5.972;2023-05-19T00:13:14;38.3;35.9;40.5;;
78273;Laerm;67530;52.282;5.972;2023-05-19T00:13:34;38.5;36.3;40.4;;
78273;Laerm;67530;52.282;5.972;2023-05-19T00:13:55;38.1;35.8;40.1;;
78273;Laerm;67530;52.282;5.972;2023-05-19T00:14:14;38.3;35.5;40.1;;
78273;Laerm;67530;52.282;5.972;2023-05-19T00:14:34;38.2;35.9;40.1;;
78273;Laerm;67530;52.282;5.972;2023-05-19T00:14:55;38.4;36.1;40.4;;
78273;Laerm;67530;52.282;5.972;2023-05-19T00:15:15;38.5;35.9;40.5;;
78273;Laerm;67530;52.282;5.972;2023-05-19T00:15:35;38.1;35.3;40;;
78273;Laerm;67530;52.282;5.972;2023-05-19T00:15:55;38;35.2;40;;
78273;Laerm;67530;52.282;5.972;2023-05-19T00:16:15;38.2;35.6;40;;
78273;Laerm;67530;52.282;5.972;2023-05-19T00:16:35;38.5;36.2;40.3;;
78273;Laerm;67530;52.282;5.972;2023-05-19T00:16:55;38.5;36.2;40.8;;
78273;Laerm;67530;52.282;5.972;2023-05-19T00:17:15;38.5;35.6;40.4;;
78273;Laerm;67530;52.282;5.972;2023-05-19T00:17:35;38.1;35.5;39.8;;
78273;Laerm;67530;52.282;5.972;2023-05-19T00:17:55;38.8;36.5;40.4;;
78273;Laerm;67530;52.282;5.972;2023-05-19T00:18:15;40.9;37.7;46.1;;
78273;Laerm;67530;52.282;5.972;2023-05-19T00:18:35;38.5;36.1;40.4;;
78273;Laerm;67530;52.282;5.972;2023-05-19T00:18:56;38.6;36.8;40.2;;
78273;Laerm;67530;52.282;5.972;2023-05-19T00:19:15;38.6;36;40.5;;
78273;Laerm;67530;52.282;5.972;2023-05-19T00:19:35;38.7;36.3;40.7;;
78273;Laerm;67530;52.282;5.972;2023-05-19T00:19:55;38.9;36.6;40.6;;
78273;Laerm;67530;52.282;5.972;2023-05-19T00:20:15;38.8;36.2;40.7;;
78273;Laerm;67530;52.282;5.972;2023-05-19T00:20:35;38.8;36;40.9;;
78273;Laerm;67530;52.282;5.972;2023-05-19T00:20:56;38.7;36.4;40.5;;
78273;Laerm;67530;52.282;5.972;2023-05-19T00:21:16;38.8;36;41.1;;
78273;Laerm;67530;52.282;5.972;2023-05-19T00:21:36;38.8;36.2;40.6;;
78273;Laerm;67530;52.282;5.972;2023-05-19T00:21:56;38.8;36;41;;
78273;Laerm;67530;52.282;5.972;2023-05-19T00:22:16;38.7;36.4;40.6;;
78273;Laerm;67530;52.282;5.972;2023-05-19T00:22:36;38.8;36.1;41.1;;
78273;Laerm;67530;52.282;5.972;2023-05-19T00:22:56;38.8;35.9;40.6;;
78273;Laerm;67530;52.282;5.972;2023-05-19T00:23:16;38.8;36.4;41;;
78273;Laerm;67530;52.282;5.972;2023-05-19T00:23:36;40.8;37.6;46.4;;
78273;Laerm;67530;52.282;5.972;2023-05-19T00:23:56;38.4;35.7;40.5;;
78273;Laerm;67530;52.282;5.972;2023-05-19T00:24:16;38.6;35.9;40.5;;
78273;Laerm;67530;52.282;5.972;2023-05-19T00:24:36;37.7;35.3;40.2;;
78273;Laerm;67530;52.282;5.972;2023-05-19T00:24:56;38.4;36;40.6;;
78273;Laerm;67530;52.282;5.972;2023-05-19T00:25:16;38.4;35.9;40.5;;
78273;Laerm;67530;52.282;5.972;2023-05-19T00:25:36;37.9;36;40.5;;
78273;Laerm;67530;52.282;5.972;2023-05-19T00:25:56;38.3;36.3;40.6;;
78273;Laerm;67530;52.282;5.972;2023-05-19T00:26:17;38.4;36.1;40.7;;
78273;Laerm;67530;52.282;5.972;2023-05-19T00:26:37;37.9;35.2;40.4;;
78273;Laerm;67530;52.282;5.972;2023-05-19T00:26:57;37.9;34.9;40.4;;
78273;Laerm;67530;52.282;5.972;2023-05-19T00:27:17;38.5;35.6;40.7;;
78273;Laerm;67530;52.282;5.972;2023-05-19T00:27:37;38.6;36;40.9;;
78273;Laerm;67530;52.282;5.972;2023-05-19T00:27:57;38.7;36.3;40.6;;
78273;Laerm;67530;52.282;5.972;2023-05-19T00:28:17;38.6;35.3;40.7;;
78273;Laerm;67530;52.282;5.972;2023-05-19T00:28:37;39.1;36.9;41.2;;
78273;Laerm;67530;52.282;5.972;2023-05-19T00:28:57;38.7;35.7;40.7;;
78273;Laerm;67530;52.282;5.972;2023-05-19T00:29:17;38.2;35.5;41;;
78273;Laerm;67530;52.282;5.972;2023-05-19T00:29:37;38.7;36.4;40.9;;
78273;Laerm;67530;52.282;5.972;2023-05-19T00:29:57;39;36.8;40.9;;
78273;Laerm;67530;52.282;5.972;2023-05-19T00:30:17;40.8;36.7;43.1;;
78273;Laerm;67530;52.282;5.972;2023-05-19T00:30:37;39;36.1;41.2;;
78273;Laerm;67530;52.282;5.972;2023-05-19T00:30:57;39.2;37;41.1;;
78273;Laerm;67530;52.282;5.972;2023-05-19T00:31:18;39.2;36.6;40.8;;
78273;Laerm;67530;52.282;5.972;2023-05-19T00:31:37;39.3;35.8;41.2;;
78273;Laerm;67530;52.282;5.972;2023-05-19T00:31:57;39.2;36.9;41;;
78273;Laerm;67530;52.282;5.972;2023-05-19T00:32:18;39.2;36.2;41.1;;
78273;Laerm;67530;52.282;5.972;2023-05-19T00:32:38;39.3;36.6;41.4;;
78273;Laerm;67530;52.282;5.972;2023-05-19T00:32:58;39.5;36.6;41.7;;
78273;Laerm;67530;52.282;5.972;2023-05-19T00:33:18;39.6;37;41.3;;
78273;Laerm;67530;52.282;5.972;2023-05-19T00:33:38;39.5;36.7;41.5;;
78273;Laerm;67530;52.282;5.972;2023-05-19T00:33:58;39.4;37.1;41.8;;
78273;Laerm;67530;52.282;5.972;2023-05-19T00:34:18;39.2;37.2;41.1;;
78273;Laerm;67530;52.282;5.972;2023-05-19T00:34:38;39.6;37.3;41.6;;
78273;Laerm;67530;52.282;5.972;2023-05-19T00:34:58;39.5;36.7;41.8;;
78273;Laerm;67530;52.282;5.972;2023-05-19T00:35:18;41.4;38.1;45.3;;
78273;Laerm;67530;52.282;5.972;2023-05-19T00:35:38;39.6;37;41.5;;
78273;Laerm;67530;52.282;5.972;2023-05-19T00:35:58;39.5;36.2;42;;
78273;Laerm;67530;52.282;5.972;2023-05-19T00:36:18;39.4;36.2;41.7;;
78273;Laerm;67530;52.282;5.972;2023-05-19T00:36:38;39.6;37.1;41.9;;
78273;Laerm;67530;52.282;5.972;2023-05-19T00:36:58;39.6;36.8;41.5;;
78273;Laerm;67530;52.282;5.972;2023-05-19T00:37:18;39.5;36.6;41.9;;
78273;Laerm;67530;52.282;5.972;2023-05-19T00:37:38;39.5;37.4;41.9;;
78273;Laerm;67530;52.282;5.972;2023-05-19T00:37:59;39.5;36.7;41.8;;
78273;Laerm;67530;52.282;5.972;2023-05-19T00:38:19;39.5;36.6;42.1;;
78273;Laerm;67530;52.282;5.972;2023-05-19T00:38:39;39.6;37;41.9;;
78273;Laerm;67530;52.282;5.972;2023-05-19T00:38:59;39.7;36.8;41.8;;
78273;Laerm;67530;52.282;5.972;2023-05-19T00:39:19;39.4;36.8;41.7;;
78273;Laerm;67530;52.282;5.972;2023-05-19T00:39:39;39.5;37.3;41.6;;
78273;Laerm;67530;52.282;5.972;2023-05-19T00:39:59;39.2;36.4;41.5;;
78273;Laerm;67530;52.282;5.972;2023-05-19T00:40:19;39.7;37.1;41.9;;
78273;Laerm;67530;52.282;5.972;2023-05-19T00:40:39;40;37.1;41.9;;
78273;Laerm;67530;52.282;5.972;2023-05-19T00:40:59;39.8;37.2;42.1;;
78273;Laerm;67530;52.282;5.972;2023-05-19T00:41:19;39.7;37.2;41.9;;
78273;Laerm;67530;52.282;5.972;2023-05-19T00:41:40;39.7;37.1;42.8;;
78273;Laerm;67530;52.282;5.972;2023-05-19T00:41:59;39.8;36.8;42.3;;
78273;Laerm;67530;52.282;5.972;2023-05-19T00:42:19;39.8;37;41.9;;
78273;Laerm;67530;52.282;5.972;2023-05-19T00:42:40;39.7;36.5;42.4;;
78273;Laerm;67530;52.282;5.972;2023-05-19T00:42:59;39.7;36.4;42;;
78273;Laerm;67530;52.282;5.972;2023-05-19T00:43:20;39.5;36.8;42.1;;
78273;Laerm;67530;52.282;5.972;2023-05-19T00:43:40;39.7;36.8;42;;
78273;Laerm;67530;52.282;5.972;2023-05-19T00:44:00;39.7;36.1;41.9;;
78273;Laerm;67530;52.282;5.972;2023-05-19T00:44:20;39.8;36.8;42.2;;
78273;Laerm;67530;52.282;5.972;2023-05-19T00:44:41;39.5;37.1;42.1;;
78273;Laerm;67530;52.282;5.972;2023-05-19T00:45:00;39.6;36.8;41.8;;
78273;Laerm;67530;52.282;5.972;2023-05-19T00:45:20;39.6;36.9;42.4;;
78273;Laerm;67530;52.282;5.972;2023-05-19T00:45:40;39.7;36.6;41.9;;
78273;Laerm;67530;52.282;5.972;2023-05-19T00:46:00;39.9;36.7;42.3;;
78273;Laerm;67530;52.282;5.972;2023-05-19T00:46:20;39.4;37;42.2;;
78273;Laerm;67530;52.282;5.972;2023-05-19T00:46:40;39.1;36.6;42;;
78273;Laerm;67530;52.282;5.972;2023-05-19T00:47:00;39.6;35.6;42.4;;
78273;Laerm;67530;52.282;5.972;2023-05-19T00:47:20;39.6;35.2;42.4;;
78273;Laerm;67530;52.282;5.972;2023-05-19T00:47:40;38.6;35.5;41.3;;
78273;Laerm;67530;52.282;5.972;2023-05-19T00:48:00;39.1;36.7;41.5;;
78273;Laerm;67530;52.282;5.972;2023-05-19T00:48:20;39.3;36;42.5;;
78273;Laerm;67530;52.282;5.972;2023-05-19T00:48:41;39.3;36.7;41.5;;
78273;Laerm;67530;52.282;5.972;2023-05-19T00:49:01;39.5;37;42.3;;
78273;Laerm;67530;52.282;5.972;2023-05-19T00:49:21;39.5;36.8;41.6;;
78273;Laerm;67530;52.282;5.972;2023-05-19T00:49:41;39.7;37.2;42.3;;
78273;Laerm;67530;52.282;5.972;2023-05-19T00:50:01;39.3;36.7;41.3;;
78273;Laerm;67530;52.282;5.972;2023-05-19T00:50:21;39.7;37;41.9;;
78273;Laerm;67530;52.282;5.972;2023-05-19T00:50:41;40.8;38.2;45.4;;
78273;Laerm;67530;52.282;5.972;2023-05-19T00:51:01;39.7;36.9;41.7;;
78273;Laerm;67530;52.282;5.972;2023-05-19T00:51:21;39.7;36.9;41.7;;
78273;Laerm;67530;52.282;5.972;2023-05-19T00:51:41;40.4;37.4;45.4;;
78273;Laerm;67530;52.282;5.972;2023-05-19T00:52:01;40.2;38.3;41.8;;
78273;Laerm;67530;52.282;5.972;2023-05-19T00:52:21;39.8;37.5;41.9;;
78273;Laerm;67530;52.282;5.972;2023-05-19T00:52:41;39.8;37.1;41.8;;
78273;Laerm;67530;52.282;5.972;2023-05-19T00:53:01;40;37.4;42.1;;
78273;Laerm;67530;52.282;5.972;2023-05-19T00:53:21;39.9;38;41.6;;
78273;Laerm;67530;52.282;5.972;2023-05-19T00:53:41;39.7;37.3;41.2;;
78273;Laerm;67530;52.282;5.972;2023-05-19T00:54:02;39.8;37.6;42;;
78273;Laerm;67530;52.282;5.972;2023-05-19T00:54:22;40;37.3;42.1;;
78273;Laerm;67530;52.282;5.972;2023-05-19T00:54:42;40.1;37.4;41.9;;
78273;Laerm;67530;52.282;5.972;2023-05-19T00:55:02;39.9;37.3;41.8;;
78273;Laerm;67530;52.282;5.972;2023-05-19T00:55:22;38.9;36.6;41.5;;
78273;Laerm;67530;52.282;5.972;2023-05-19T00:55:42;39.5;36.5;41.5;;
78273;Laerm;67530;52.282;5.972;2023-05-19T00:56:02;40;37.7;41.9;;
78273;Laerm;67530;52.282;5.972;2023-05-19T00:56:22;40.1;37;42.1;;
78273;Laerm;67530;52.282;5.972;2023-05-19T00:56:42;39.9;37.6;42.2;;
78273;Laerm;67530;52.282;5.972;2023-05-19T00:57:02;39.9;36.3;42.2;;
78273;Laerm;67530;52.282;5.972;2023-05-19T00:57:22;40.1;37.4;41.8;;
78273;Laerm;67530;52.282;5.972;2023-05-19T00:57:42;40.2;37.8;42.2;;
78273;Laerm;67530;52.282;5.972;2023-05-19T00:58:03;40.1;37.6;42.2;;
78273;Laerm;67530;52.282;5.972;2023-05-19T00:58:22;40.2;37.5;42;;
78273;Laerm;67530;52.282;5.972;2023-05-19T00:58:43;40.4;37.9;42.4;;
78273;Laerm;67530;52.282;5.972;2023-05-19T00:59:02;40.4;38.4;41.7;;
78273;Laerm;67530;52.282;5.972;2023-05-19T00:59:22;39.5;36.5;41.7;;
78273;Laerm;67530;52.282;5.972;2023-05-19T00:59:43;42.1;37.8;44.9;;
78273;Laerm;67530;52.282;5.972;2023-05-19T01:00:03;40.7;38.7;42.1;;
78273;Laerm;67530;52.282;5.972;2023-05-19T01:00:23;40.4;37.6;41.9;;
78273;Laerm;67530;52.282;5.972;2023-05-19T01:00:43;40.2;37.1;42.7;;
78273;Laerm;67530;52.282;5.972;2023-05-19T01:01:03;40.3;37.8;42.2;;
78273;Laerm;67530;52.282;5.972;2023-05-19T01:01:23;40.5;37.7;42.4;;
78273;Laerm;67530;52.282;5.972;2023-05-19T01:01:43;40.4;38.2;42.4;;
78273;Laerm;67530;52.282;5.972;2023-05-19T01:02:03;40.4;37.8;42.7;;
78273;Laerm;67530;52.282;5.972;2023-05-19T01:02:23;40.2;36.1;42.8;;
78273;Laerm;67530;52.282;5.972;2023-05-19T01:02:43;40.1;36.8;42.6;;
78273;Laerm;67530;52.282;5.972;2023-05-19T01:03:03;40.3;38.1;41.8;;
78273;Laerm;67530;52.282;5.972;2023-05-19T01:03:23;41.7;38.8;44.4;;
78273;Laerm;67530;52.282;5.972;2023-05-19T01:03:43;40.6;37.7;42.7;;
78273;Laerm;67530;52.282;5.972;2023-05-19T01:04:03;40.4;37.3;42.6;;
78273;Laerm;67530;52.282;5.972;2023-05-19T01:04:24;40.6;38;42.6;;
78273;Laerm;67530;52.282;5.972;2023-05-19T01:04:43;40.4;37.8;42.6;;
78273;Laerm;67530;52.282;5.972;2023-05-19T01:05:04;39.8;37.1;45.1;;
78273;Laerm;67530;52.282;5.972;2023-05-19T01:05:24;40.4;37.1;42.3;;
78273;Laerm;67530;52.282;5.972;2023-05-19T01:05:44;40.7;37.8;42.6;;
78273;Laerm;67530;52.282;5.972;2023-05-19T01:06:04;40.6;37.6;42.2;;
78273;Laerm;67530;52.282;5.972;2023-05-19T01:06:24;42.8;39;47;;
78273;Laerm;67530;52.282;5.972;2023-05-19T01:06:45;41.1;38;43.1;;
78273;Laerm;67530;52.282;5.972;2023-05-19T01:07:04;40.8;38;42.5;;
78273;Laerm;67530;52.282;5.972;2023-05-19T01:07:24;40.9;38.6;43.6;;
78273;Laerm;67530;52.282;5.972;2023-05-19T01:07:44;40.8;38.3;43.2;;
78273;Laerm;67530;52.282;5.972;2023-05-19T01:08:04;40.7;38.2;42.8;;
78273;Laerm;67530;52.282;5.972;2023-05-19T01:08:24;40.8;38.5;42.4;;
78273;Laerm;67530;52.282;5.972;2023-05-19T01:08:44;40.7;37.2;44.2;;
78273;Laerm;67530;52.282;5.972;2023-05-19T01:09:04;40.7;38.5;42.5;;
78273;Laerm;67530;52.282;5.972;2023-05-19T01:09:24;40.8;37.9;42.8;;
78273;Laerm;67530;52.282;5.972;2023-05-19T01:09:44;40.4;37.6;42.7;;
78273;Laerm;67530;52.282;5.972;2023-05-19T01:10:05;40.7;38.2;42.6;;
78273;Laerm;67530;52.282;5.972;2023-05-19T01:10:24;40.9;38.5;42.6;;
78273;Laerm;67530;52.282;5.972;2023-05-19T01:10:45;40.8;37.2;42.8;;
78273;Laerm;67530;52.282;5.972;2023-05-19T01:11:05;41.1;38.4;42.8;;
78273;Laerm;67530;52.282;5.972;2023-05-19T01:11:25;40.9;38;42.6;;
78273;Laerm;67530;52.282;5.972;2023-05-19T01:11:45;41.1;38.6;43.4;;
78273;Laerm;67530;52.282;5.972;2023-05-19T01:12:05;43;39.6;47.5;;
78273;Laerm;67530;52.282;5.972;2023-05-19T01:12:25;41.3;38.3;43.4;;
78273;Laerm;67530;52.282;5.972;2023-05-19T01:12:45;41.2;38.1;43.1;;
78273;Laerm;67530;52.282;5.972;2023-05-19T01:13:05;41.2;38.5;43;;
78273;Laerm;67530;52.282;5.972;2023-05-19T01:13:25;41.1;38.7;42.7;;
78273;Laerm;67530;52.282;5.972;2023-05-19T01:13:45;40.9;37.2;42.9;;
78273;Laerm;67530;52.282;5.972;2023-05-19T01:14:05;41.3;38.4;43.2;;
78273;Laerm;67530;52.282;5.972;2023-05-19T01:14:25;41.3;38.4;43.4;;
78273;Laerm;67530;52.282;5.972;2023-05-19T01:14:45;41.3;38.7;43;;
78273;Laerm;67530;52.282;5.972;2023-05-19T01:15:05;41;38;43;;
78273;Laerm;67530;52.282;5.972;2023-05-19T01:15:25;40;37.6;42.6;;
78273;Laerm;67530;52.282;5.972;2023-05-19T01:15:50;40.1;37.8;42.6;;
78273;Laerm;67530;52.282;5.972;2023-05-19T01:16:07;41;37.7;43.2;;
78273;Laerm;67530;52.282;5.972;2023-05-19T01:16:27;41.2;38.7;43.2;;
78273;Laerm;67530;52.282;5.972;2023-05-19T01:16:46;41.2;38.6;43.3;;
78273;Laerm;67530;52.282;5.972;2023-05-19T01:17:06;40.6;37.5;42.7;;
78273;Laerm;67530;52.282;5.972;2023-05-19T01:17:28;40.5;37.4;43.1;;
78273;Laerm;67530;52.282;5.972;2023-05-19T01:17:47;41;37.3;43.3;;
78273;Laerm;67530;52.282;5.972;2023-05-19T01:18:07;41.4;39.3;43.3;;
78273;Laerm;67530;52.282;5.972;2023-05-19T01:18:31;41.3;38.8;43.3;;
78273;Laerm;67530;52.282;5.972;2023-05-19T01:18:48;40.8;37.6;43.2;;
78273;Laerm;67530;52.282;5.972;2023-05-19T01:19:09;41.2;38.6;43.1;;
78273;Laerm;67530;52.282;5.972;2023-05-19T01:19:30;41;37.9;43.5;;
78273;Laerm;67530;52.282;5.972;2023-05-19T01:19:49;41.3;38.5;43.4;;
78273;Laerm;67530;52.282;5.972;2023-05-19T01:20:07;40.9;38.8;43.2;;
78273;Laerm;67530;52.282;5.972;2023-05-19T01:20:28;40.9;37.5;43.3;;
78273;Laerm;67530;52.282;5.972;2023-05-19T01:20:48;41.2;37.7;43.4;;
78273;Laerm;67530;52.282;5.972;2023-05-19T01:21:20;41.6;38.7;43.7;;
78273;Laerm;67530;52.282;5.972;2023-05-19T01:22:03;41.4;38.6;43.5;;
78273;Laerm;67530;52.282;5.972;2023-05-19T01:22:11;41.2;37.7;43.4;;
78273;Laerm;67530;52.282;5.972;2023-05-19T01:22:31;40.7;38.1;43.1;;
78273;Laerm;67530;52.282;5.972;2023-05-19T01:22:58;40.8;38.2;43.4;;
78273;Laerm;67530;52.282;5.972;2023-05-19T01:23:11;41;38.1;43.2;;
78273;Laerm;67530;52.282;5.972;2023-05-19T01:23:29;41.5;39;43.4;;
78273;Laerm;67530;52.282;5.972;2023-05-19T01:23:48;41.6;38.4;43.6;;
78273;Laerm;67530;52.282;5.972;2023-05-19T01:24:12;41.6;38.4;43.6;;
78273;Laerm;67530;52.282;5.972;2023-05-19T01:24:33;41.2;37.9;43.3;;
78273;Laerm;67530;52.282;5.972;2023-05-19T01:24:53;40.8;37.8;43.5;;
78273;Laerm;67530;52.282;5.972;2023-05-19T01:25:14;41.2;38.9;43.4;;
78273;Laerm;67530;52.282;5.972;2023-05-19T01:25:53;41.3;38.5;43.7;;
78273;Laerm;67530;52.282;5.972;2023-05-19T01:26:03;41.2;37.5;43.4;;
78273;Laerm;67530;52.282;5.972;2023-05-19T01:26:10;41.6;38.2;43.5;;
78273;Laerm;67530;52.282;5.972;2023-05-19T01:26:34;41.7;38.6;43.7;;
78273;Laerm;67530;52.282;5.972;2023-05-19T01:26:53;41.5;38.5;43.5;;
78273;Laerm;67530;52.282;5.972;2023-05-19T01:27:14;41.3;38.5;43.9;;
78273;Laerm;67530;52.282;5.972;2023-05-19T01:27:40;41.6;38.9;43.6;;
78273;Laerm;67530;52.282;5.972;2023-05-19T01:27:54;41.7;39.4;43.5;;
78273;Laerm;67530;52.282;5.972;2023-05-19T01:28:14;41.6;39.2;43.5;;
78273;Laerm;67530;52.282;5.972;2023-05-19T01:28:37;41.6;38.4;45.8;;
78273;Laerm;67530;52.282;5.972;2023-05-19T01:28:53;41.5;38.6;43.5;;
78273;Laerm;67530;52.282;5.972;2023-05-19T01:29:19;41.3;38.3;43.6;;
78273;Laerm;67530;52.282;5.972;2023-05-19T01:29:32;41;37.6;43.5;;
78273;Laerm;67530;52.282;5.972;2023-05-19T01:29:53;41.3;38.6;43.1;;
78273;Laerm;67530;52.282;5.972;2023-05-19T01:30:19;40.8;38.1;43.7;;
78273;Laerm;67530;52.282;5.972;2023-05-19T01:30:29;41;38.6;43.6;;
78273;Laerm;67530;52.282;5.972;2023-05-19T01:30:50;41.2;38.6;43.8;;
78273;Laerm;67530;52.282;5.972;2023-05-19T01:31:08;41.3;38.1;43.4;;
78273;Laerm;67530;52.282;5.972;2023-05-19T01:31:28;40.2;37.2;43.5;;
78273;Laerm;67530;52.282;5.972;2023-05-19T01:31:48;40.4;37.2;43.9;;
78273;Laerm;67530;52.282;5.972;2023-05-19T01:32:08;43.2;39;47;;
78273;Laerm;67530;52.282;5.972;2023-05-19T01:32:28;41.5;38.1;44.2;;
78273;Laerm;67530;52.282;5.972;2023-05-19T01:32:48;41.8;38.7;44;;
78273;Laerm;67530;52.282;5.972;2023-05-19T01:33:10;41.8;38.6;44.1;;
78273;Laerm;67530;52.282;5.972;2023-05-19T01:33:29;41.3;37.8;44;;
78273;Laerm;67530;52.282;5.972;2023-05-19T01:33:49;42;38.3;44.2;;
78273;Laerm;67530;52.282;5.972;2023-05-19T01:34:09;41.9;38.5;44.2;;
78273;Laerm;67530;52.282;5.972;2023-05-19T01:34:29;42;38.6;44.2;;
78273;Laerm;67530;52.282;5.972;2023-05-19T01:34:49;41.5;38.4;44.1;;
78273;Laerm;67530;52.282;5.972;2023-05-19T01:35:09;41.9;37.8;44;;
78273;Laerm;67530;52.282;5.972;2023-05-19T01:35:29;41.6;37.8;44.6;;
78273;Laerm;67530;52.282;5.972;2023-05-19T01:35:49;41.5;37.6;44.1;;
78273;Laerm;67530;52.282;5.972;2023-05-19T01:36:09;41.7;38.6;43.9;;
78273;Laerm;67530;52.282;5.972;2023-05-19T01:36:29;41.1;37.8;43.7;;
78273;Laerm;67530;52.282;5.972;2023-05-19T01:36:49;41.6;37.2;44.1;;
78273;Laerm;67530;52.282;5.972;2023-05-19T01:37:09;42;39.2;44.2;;
78273;Laerm;67530;52.282;5.972;2023-05-19T01:37:29;42.4;39.1;45.2;;
78273;Laerm;67530;52.282;5.972;2023-05-19T01:37:50;41.8;38.4;44;;
78273;Laerm;67530;52.282;5.972;2023-05-19T01:38:10;42;38.9;44;;
78273;Laerm;67530;52.282;5.972;2023-05-19T01:38:29;41.8;38.3;44.1;;
78273;Laerm;67530;52.282;5.972;2023-05-19T01:38:50;41.8;39.1;43.9;;
78273;Laerm;67530;52.282;5.972;2023-05-19T01:39:10;41.9;38.7;44.1;;
78273;Laerm;67530;52.282;5.972;2023-05-19T01:39:30;42.2;39.1;44.3;;
78273;Laerm;67530;52.282;5.972;2023-05-19T01:39:50;42.1;38.6;44.1;;
78273;Laerm;67530;52.282;5.972;2023-05-19T01:40:10;42;37.8;44.1;;
78273;Laerm;67530;52.282;5.972;2023-05-19T01:40:30;42.1;38.3;44.2;;
78273;Laerm;67530;52.282;5.972;2023-05-19T01:40:50;42.3;38.9;44.2;;
78273;Laerm;67530;52.282;5.972;2023-05-19T01:41:10;44.2;40.6;48.2;;
78273;Laerm;67530;52.282;5.972;2023-05-19T01:41:30;42.1;38.5;44.4;;
78273;Laerm;67530;52.282;5.972;2023-05-19T01:41:50;42;38.5;44.4;;
78273;Laerm;67530;52.282;5.972;2023-05-19T01:42:10;42.4;38.7;44.5;;
78273;Laerm;67530;52.282;5.972;2023-05-19T01:42:30;42.4;38.9;44.4;;
78273;Laerm;67530;52.282;5.972;2023-05-19T01:42:51;42.4;38.7;44.6;;
78273;Laerm;67530;52.282;5.972;2023-05-19T01:43:13;42.5;39.2;44.4;;
78273;Laerm;67530;52.282;5.972;2023-05-19T01:43:30;42.2;38.7;44.3;;
78273;Laerm;67530;52.282;5.972;2023-05-19T01:43:51;42.2;39.1;44.3;;
78273;Laerm;67530;52.282;5.972;2023-05-19T01:44:11;42.2;38.6;44.2;;
78273;Laerm;67530;52.282;5.972;2023-05-19T01:44:31;42.3;38.9;44.4;;
78273;Laerm;67530;52.282;5.972;2023-05-19T01:44:51;42.2;38.9;44.4;;
78273;Laerm;67530;52.282;5.972;2023-05-19T01:45:11;42.1;38.7;44.9;;
78273;Laerm;67530;52.282;5.972;2023-05-19T01:45:31;42;38.7;44.3;;
78273;Laerm;67530;52.282;5.972;2023-05-19T01:45:51;42.2;38.6;44.2;;
78273;Laerm;67530;52.282;5.972;2023-05-19T01:46:11;42.1;38.8;44.6;;
78273;Laerm;67530;52.282;5.972;2023-05-19T01:46:31;42.1;38.9;44.5;;
78273;Laerm;67530;52.282;5.972;2023-05-19T01:46:51;42;38.2;44.5;;
78273;Laerm;67530;52.282;5.972;2023-05-19T01:47:11;41.8;38.3;44.2;;
78273;Laerm;67530;52.282;5.972;2023-05-19T01:47:31;41.7;39;43.8;;
78273;Laerm;67530;52.282;5.972;2023-05-19T01:47:52;41.4;38;44.4;;
78273;Laerm;67530;52.282;5.972;2023-05-19T01:48:12;41.6;37.6;43.8;;
78273;Laerm;67530;52.282;5.972;2023-05-19T01:48:31;41.9;37.9;44.3;;
78273;Laerm;67530;52.282;5.972;2023-05-19T01:48:51;41.8;38.9;44.2;;
78273;Laerm;67530;52.282;5.972;2023-05-19T01:49:11;42;38.7;44.5;;
78273;Laerm;67530;52.282;5.972;2023-05-19T01:49:31;41.3;38.5;44;;
78273;Laerm;67530;52.282;5.972;2023-05-19T01:49:52;41.1;37.4;43.9;;
78273;Laerm;67530;52.282;5.972;2023-05-19T01:50:12;41.6;38.1;44.2;;
78273;Laerm;67530;52.282;5.972;2023-05-19T01:50:32;42.2;38.5;44.6;;
78273;Laerm;67530;52.282;5.972;2023-05-19T01:50:52;42.4;38.4;44.6;;
78273;Laerm;67530;52.282;5.972;2023-05-19T01:51:12;42.3;39.1;44.4;;
78273;Laerm;67530;52.282;5.972;2023-05-19T01:51:32;42.2;38.3;44.5;;
78273;Laerm;67530;52.282;5.972;2023-05-19T01:51:52;42.3;38.6;44.5;;
78273;Laerm;67530;52.282;5.972;2023-05-19T01:52:12;42.3;39.5;45.1;;
78273;Laerm;67530;52.282;5.972;2023-05-19T01:52:32;42.3;39;44.4;;
78273;Laerm;67530;52.282;5.972;2023-05-19T01:52:52;42.4;39;44.8;;
78273;Laerm;67530;52.282;5.972;2023-05-19T01:53:12;42.3;38.6;44.3;;
78273;Laerm;67530;52.282;5.972;2023-05-19T01:53:32;42.3;38.7;44.4;;
78273;Laerm;67530;52.282;5.972;2023-05-19T01:53:52;42.4;38.6;44.5;;
78273;Laerm;67530;52.282;5.972;2023-05-19T01:54:12;42.2;38.5;44.2;;
78273;Laerm;67530;52.282;5.972;2023-05-19T01:54:32;42.1;39.2;44.3;;
78273;Laerm;67530;52.282;5.972;2023-05-19T01:54:52;42.3;38.6;44.5;;
78273;Laerm;67530;52.282;5.972;2023-05-19T01:55:13;41.2;37.4;43.9;;
78273;Laerm;67530;52.282;5.972;2023-05-19T01:55:33;41.8;38;44.6;;
78273;Laerm;67530;52.282;5.972;2023-05-19T01:55:53;41;37.9;44.1;;
78273;Laerm;67530;52.282;5.972;2023-05-19T01:56:13;41.8;38.8;44.5;;
78273;Laerm;67530;52.282;5.972;2023-05-19T01:56:40;41.9;38.5;44.5;;
78273;Laerm;67530;52.282;5.972;2023-05-19T01:56:56;41.8;38.6;44.5;;
78273;Laerm;67530;52.282;5.972;2023-05-19T01:57:14;42.7;38.7;46.6;;
78273;Laerm;67530;52.282;5.972;2023-05-19T01:57:35;41.6;38.4;44.3;;
78273;Laerm;67530;52.282;5.972;2023-05-19T01:57:56;41.1;37.6;44.2;;
78273;Laerm;67530;52.282;5.972;2023-05-19T01:58:15;41.8;38.2;44.4;;
78273;Laerm;67530;52.282;5.972;2023-05-19T01:58:37;42.1;38.7;44.5;;